Time;durP1;ratioP1;P1;durP2;ratioP2;P2;SDS_P1;SDS_P2;PMS_P1;PMS_P2;Temp;Humidity;BMP_temperature;BMP_pressure;BME280_temperature;BME280_humidity;BME280_pressure;Samples;Min_cycle;Max_cycle;Signal;HPM_P1;HPM_P2
2022/12/07 00:01:13;;;;;;;20.17;9.98;;;0.50;99.90;;;;;;5048106;28;20091;-70
2022/12/07 00:03:41;;;;;;;28.55;10.48;;;0.50;99.90;;;;;;5045103;28;20557;-70
2022/12/07 00:06:07;;;;;;;22.73;8.95;;;0.60;99.90;;;;;;5055162;28;20435;-70
2022/12/07 00:08:34;;;;;;;18.13;7.05;;;0.70;99.90;;;;;;5055211;28;20039;-71
2022/12/07 00:11:04;;;;;;;13.15;6.55;;;0.90;99.90;;;;;;5055517;28;20025;-70
2022/12/07 00:13:31;;;;;;;15.95;5.80;;;1.00;99.90;;;;;;5054897;28;20060;-71
2022/12/07 00:16:01;;;;;;;15.68;7.03;;;1.10;99.90;;;;;;5055439;28;20036;-71
2022/12/07 00:18:27;;;;;;;15.50;5.95;;;1.20;99.90;;;;;;5056206;28;20471;-70
2022/12/07 00:20:52;;;;;;;15.32;6.07;;;1.10;99.90;;;;;;5055313;28;20060;-71
2022/12/07 00:23:18;;;;;;;17.30;6.90;;;1.10;99.90;;;;;;5055061;28;20029;-70
2022/12/07 00:25:43;;;;;;;12.75;6.75;;;1.00;99.90;;;;;;5055475;28;20060;-70
2022/12/07 00:28:10;;;;;;;14.15;7.15;;;1.00;99.90;;;;;;5053035;28;20044;-70
2022/12/07 00:30:36;;;;;;;11.45;6.95;;;0.80;99.90;;;;;;5055251;28;20036;-70
2022/12/07 00:33:04;;;;;;;16.63;7.75;;;0.70;99.90;;;;;;5055279;28;20029;-71
2022/12/07 00:35:29;;;;;;;14.00;7.30;;;0.70;99.90;;;;;;5054882;28;20028;-70
2022/12/07 00:37:55;;;;;;;16.80;8.00;;;0.80;99.90;;;;;;5054610;28;20138;-70
2022/12/07 00:40:20;;;;;;;19.58;8.82;;;0.70;99.90;;;;;;5037118;28;20048;-70
2022/12/07 00:42:46;;;;;;;19.63;9.57;;;0.80;99.90;;;;;;5053641;28;20369;-70
2022/12/07 00:45:11;;;;;;;22.05;10.25;;;0.80;99.90;;;;;;5054918;28;20025;-70
2022/12/07 00:47:37;;;;;;;26.80;12.75;;;0.80;99.90;;;;;;5054847;28;20055;-70
2022/12/07 00:50:02;;;;;;;28.83;14.18;;;0.90;99.90;;;;;;5054746;28;20055;-70
2022/12/07 00:52:28;;;;;;;28.20;15.43;;;0.80;99.90;;;;;;5054097;28;20033;-70
2022/12/07 00:54:53;;;;;;;31.75;15.38;;;0.70;99.90;;;;;;5054538;28;20021;-70
2022/12/07 00:57:19;;;;;;;37.05;16.20;;;0.50;99.90;;;;;;5054837;28;20341;-70
2022/12/07 00:59:45;;;;;;;37.30;16.17;;;0.60;99.90;;;;;;5054602;28;20124;-70
2022/12/07 01:02:10;;;;;;;39.33;16.27;;;0.50;99.90;;;;;;5049066;28;20034;-70
2022/12/07 01:04:35;;;;;;;36.78;15.73;;;0.40;99.90;;;;;;5034361;28;20033;-70
2022/12/07 01:07:01;;;;;;;31.50;15.90;;;0.30;99.90;;;;;;5036914;28;20403;-70
2022/12/07 01:09:26;;;;;;;39.47;16.00;;;0.20;99.90;;;;;;5034705;28;20041;-70
2022/12/07 01:11:52;;;;;;;34.60;15.63;;;0.10;99.90;;;;;;5037719;28;20033;-70
2022/12/07 01:14:17;;;;;;;35.20;16.55;;;0.10;99.90;;;;;;5055100;28;20025;-70
2022/12/07 01:16:43;;;;;;;39.30;15.60;;;0.00;99.90;;;;;;5054204;28;20025;-70
2022/12/07 01:19:09;;;;;;;39.70;16.13;;;-0.10;99.90;;;;;;5053488;28;20018;-70
2022/12/07 01:21:37;;;;;;;29.30;15.55;;;-0.10;99.90;;;;;;5034333;28;20472;-70
2022/12/07 01:24:05;;;;;;;28.30;13.63;;;-0.30;99.90;;;;;;5053811;28;20025;-70
2022/12/07 01:26:30;;;;;;;31.25;14.90;;;-0.30;99.90;;;;;;5053907;28;20060;-70
2022/12/07 01:28:58;;;;;;;33.50;14.88;;;-0.40;99.90;;;;;;5054061;28;20049;-71
2022/12/07 01:31:25;;;;;;;35.28;14.75;;;-0.50;99.90;;;;;;5053867;28;20043;-69
2022/12/07 01:33:53;;;;;;;35.65;16.45;;;-0.50;99.90;;;;;;5052012;28;20036;-70
2022/12/07 01:36:29;;;;;;;45.35;23.70;;;-0.50;99.90;;;;;;5053500;28;20051;-70
2022/12/07 01:39:00;;;;;;;47.45;23.23;;;-0.50;99.90;;;;;;5054159;28;20113;-70
2022/12/07 01:41:28;;;;;;;88.68;30.85;;;-0.50;99.90;;;;;;5036598;28;20025;-70
2022/12/07 01:44:11;;;;;;;61.90;21.80;;;-0.50;99.90;;;;;;5035808;28;20024;-70
2022/12/07 01:46:37;;;;;;;40.22;18.08;;;-0.50;99.90;;;;;;5053667;28;20028;-70
2022/12/07 01:49:05;;;;;;;47.30;20.23;;;-0.50;99.90;;;;;;5052949;28;20047;-70
2022/12/07 01:51:31;;;;;;;38.78;17.38;;;-0.50;99.90;;;;;;5053573;28;20162;-70
2022/12/07 01:53:57;;;;;;;35.83;19.08;;;-0.50;99.90;;;;;;5053571;28;20025;-70
2022/12/07 01:56:26;;;;;;;35.50;16.88;;;-0.50;99.90;;;;;;5053360;28;20079;-70
2022/12/07 01:58:52;;;;;;;33.17;16.02;;;-0.50;99.90;;;;;;5053819;28;20112;-71
2022/12/07 02:01:18;;;;;;;40.72;17.15;;;-0.50;99.90;;;;;;5053064;28;20029;-70
2022/12/07 02:03:45;;;;;;;29.48;15.32;;;-0.50;99.90;;;;;;5053454;28;20404;-70
2022/12/07 02:06:15;;;;;;;39.50;18.42;;;-0.60;99.90;;;;;;5053398;28;20037;-71
2022/12/07 02:08:41;;;;;;;31.83;16.38;;;-0.60;99.90;;;;;;5053542;28;20025;-70
2022/12/07 02:11:08;;;;;;;30.70;15.13;;;-0.70;99.90;;;;;;5053381;28;20020;-70
2022/12/07 02:13:37;;;;;;;34.88;17.35;;;-0.80;99.90;;;;;;5052722;28;20561;-70
2022/12/07 02:16:25;;;;;;;41.35;17.92;;;-0.90;99.90;;;;;;5053026;28;20037;-70
2022/12/07 02:19:17;;;;;;;39.17;19.73;;;-0.80;99.90;;;;;;5053552;28;20100;-70
2022/12/07 02:21:59;;;;;;;42.65;19.08;;;-0.70;99.90;;;;;;5009107;28;20076;-70
2022/12/07 02:24:49;;;;;;;40.17;18.43;;;-0.80;99.90;;;;;;5053326;28;20112;-70
2022/12/07 02:27:14;;;;;;;46.38;18.20;;;-0.70;99.90;;;;;;5052692;28;20666;-70
2022/12/07 02:29:45;;;;;;;38.45;19.33;;;-0.80;99.90;;;;;;5046205;28;20052;-70
2022/12/07 02:32:25;;;;;;;41.63;18.55;;;-0.90;99.90;;;;;;5052859;28;20035;-71
2022/12/07 02:34:57;;;;;;;35.20;18.08;;;-0.90;99.90;;;;;;5053278;28;20444;-70
2022/12/07 02:37:42;;;;;;;36.33;15.85;;;-1.00;99.90;;;;;;5052744;28;20025;-70
2022/12/07 02:40:40;;;;;;;35.95;18.38;;;-1.10;99.90;;;;;;5052431;28;20086;-70
2022/12/07 02:43:17;;;;;;;32.95;16.88;;;-1.00;99.90;;;;;;5053267;28;20023;-70
2022/12/07 02:45:45;;;;;;;40.47;18.67;;;-0.90;99.90;;;;;;5052994;28;20025;-70
2022/12/07 02:48:14;;;;;;;39.75;19.50;;;-0.90;99.90;;;;;;5052800;28;20079;-70
2022/12/07 02:50:53;;;;;;;41.20;20.73;;;-0.90;99.90;;;;;;5052919;28;20025;-70
2022/12/07 02:53:30;;;;;;;45.40;20.52;;;-1.10;99.90;;;;;;5052315;28;20096;-70
2022/12/07 02:55:56;;;;;;;41.17;18.52;;;-1.10;99.90;;;;;;5052786;28;20046;-70
2022/12/07 02:58:41;;;;;;;40.38;18.85;;;-1.20;99.90;;;;;;5052675;28;20392;-70
2022/12/07 03:01:17;;;;;;;59.25;24.95;;;-1.20;99.90;;;;;;5052856;28;20108;-70
2022/12/07 03:03:49;;;;;;;41.80;18.48;;;-1.10;99.90;;;;;;5052343;28;20025;-70
2022/12/07 03:06:27;;;;;;;40.08;20.48;;;-1.10;99.90;;;;;;5052563;28;20515;-70
2022/12/07 03:09:17;;;;;;;51.40;25.23;;;-1.10;99.90;;;;;;5052927;28;20112;-70
2022/12/07 03:11:48;;;;;;;59.17;25.00;;;-1.10;99.90;;;;;;5052355;28;20419;-70
2022/12/07 03:14:23;;;;;;;53.38;24.67;;;-1.00;99.90;;;;;;5053071;28;20044;-71
2022/12/07 03:17:14;;;;;;;61.22;27.95;;;-1.10;99.90;;;;;;5053150;28;20395;-70
2022/12/07 03:19:42;;;;;;;59.95;24.52;;;-1.10;99.90;;;;;;5052151;28;20100;-70
2022/12/07 03:22:10;;;;;;;62.53;27.45;;;-1.00;99.90;;;;;;5052639;28;20079;-70
2022/12/07 03:24:45;;;;;;;52.03;23.92;;;-1.00;99.90;;;;;;5052634;28;20415;-70
2022/12/07 03:27:32;;;;;;;41.05;20.65;;;-1.00;99.90;;;;;;5034780;28;20036;-70
2022/12/07 03:30:02;;;;;;;44.83;23.25;;;-1.10;99.90;;;;;;5052483;28;20021;-70
2022/12/07 03:32:31;;;;;;;47.60;24.20;;;-1.20;99.90;;;;;;5052279;28;20033;-70
2022/12/07 03:35:25;;;;;;;52.83;25.58;;;-1.30;99.90;;;;;;5052422;28;20025;-70
2022/12/07 03:38:19;;;;;;;66.93;34.38;;;-1.20;99.90;;;;;;5052676;28;20495;-70
2022/12/07 03:41:01;;;;;;;59.70;26.95;;;-1.20;99.90;;;;;;5051080;28;20052;-70
2022/12/07 03:43:30;;;;;;;45.05;22.15;;;-1.20;99.90;;;;;;5055247;28;20468;-70
2022/12/07 03:46:27;;;;;;;42.53;18.92;;;-1.30;99.90;;;;;;5055908;28;20029;-70
2022/12/07 03:49:18;;;;;;;36.25;16.08;;;-1.40;99.90;;;;;;5056539;28;20021;-70
2022/12/07 03:52:00;;;;;;;36.53;17.08;;;-1.50;99.90;;;;;;5056070;28;20033;-70
2022/12/07 03:54:34;;;;;;;32.35;15.88;;;-1.50;99.90;;;;;;5056098;28;20033;-70
2022/12/07 03:57:01;;;;;;;36.13;15.32;;;-1.60;99.90;;;;;;5055311;28;20506;-70
2022/12/07 03:59:29;;;;;;;32.95;15.32;;;-1.60;99.90;;;;;;5055957;28;20384;-70
2022/12/07 04:01:57;;;;;;;35.00;15.20;;;-1.70;99.90;;;;;;5055969;28;20373;-70
2022/12/07 04:04:24;;;;;;;32.25;14.90;;;-1.80;99.90;;;;;;5055909;28;20106;-70
2022/12/07 04:06:50;;;;;;;33.05;14.93;;;-1.80;99.90;;;;;;5053960;28;20037;-70
2022/12/07 04:09:16;;;;;;;38.47;16.15;;;-1.80;99.90;;;;;;5037167;28;20140;-70
2022/12/07 04:11:42;;;;;;;35.45;16.10;;;-1.80;99.90;;;;;;5055241;28;20096;-69
2022/12/07 04:14:20;;;;;;;46.17;20.63;;;-1.80;99.90;;;;;;5051462;28;20025;-70
2022/12/07 04:16:51;;;;;;;34.00;15.55;;;-1.80;99.90;;;;;;5052076;28;20672;-70
2022/12/07 04:19:19;;;;;;;43.25;17.35;;;-1.80;99.90;;;;;;5055209;28;20361;-70
2022/12/07 04:21:45;;;;;;;35.83;17.08;;;-1.70;99.90;;;;;;5055244;28;20024;-70
2022/12/07 04:24:12;;;;;;;41.28;17.27;;;-1.50;99.90;;;;;;5055309;28;20476;-70
2022/12/07 04:26:38;;;;;;;44.47;17.30;;;-1.40;99.90;;;;;;5055280;28;20025;-70
2022/12/07 04:29:04;;;;;;;42.33;16.95;;;-1.30;99.90;;;;;;5053019;28;20032;-70
2022/12/07 04:31:29;;;;;;;39.55;16.52;;;-1.10;99.90;;;;;;5054638;28;20021;-70
2022/12/07 04:33:55;;;;;;;42.90;15.57;;;-0.90;99.90;;;;;;5050528;28;20116;-70
2022/12/07 04:36:20;;;;;;;36.28;15.32;;;-0.70;99.90;;;;;;5055015;28;20072;-70
2022/12/07 04:38:46;;;;;;;36.78;14.88;;;-0.50;99.90;;;;;;5054591;28;20096;-70
2022/12/07 04:41:12;;;;;;;52.70;21.75;;;-0.30;99.90;;;;;;5054989;28;20033;-70
2022/12/07 04:43:38;;;;;;;36.88;17.00;;;-0.20;99.90;;;;;;5054948;28;20090;-70
2022/12/07 04:46:03;;;;;;;27.75;13.32;;;-0.10;99.90;;;;;;5054853;28;20033;-70
2022/12/07 04:48:29;;;;;;;34.75;14.25;;;0.00;99.90;;;;;;5054981;28;20032;-71
2022/12/07 04:50:57;;;;;;;35.92;11.23;;;0.00;99.90;;;;;;5054823;28;20570;-71
2022/12/07 04:53:23;;;;;;;25.60;11.85;;;0.00;99.90;;;;;;5053636;28;20061;-70
2022/12/07 04:55:48;;;;;;;32.38;11.88;;;0.00;99.90;;;;;;5053887;28;20064;-70
2022/12/07 04:58:14;;;;;;;24.35;10.20;;;0.00;99.90;;;;;;5054530;28;20412;-70
2022/12/07 05:00:41;;;;;;;24.80;9.75;;;0.00;99.90;;;;;;5054590;28;20095;-71
2022/12/07 05:03:06;;;;;;;29.20;9.70;;;0.00;99.90;;;;;;5054135;28;20484;-70
2022/12/07 05:05:32;;;;;;;19.70;9.52;;;0.00;99.90;;;;;;5054323;28;20048;-70
2022/12/07 05:07:57;;;;;;;33.72;11.07;;;0.00;99.90;;;;;;5054429;28;20450;-71
2022/12/07 05:10:23;;;;;;;31.95;8.30;;;0.00;99.90;;;;;;5054409;28;20481;-71
2022/12/07 05:12:49;;;;;;;27.15;9.98;;;0.00;99.90;;;;;;5053828;28;20029;-70
2022/12/07 05:15:15;;;;;;;23.83;7.38;;;-0.10;99.90;;;;;;5054202;28;20032;-70
2022/12/07 05:17:41;;;;;;;25.70;7.47;;;-0.10;99.90;;;;;;5053919;28;20021;-71
2022/12/07 05:20:08;;;;;;;28.17;8.25;;;-0.20;99.90;;;;;;5054454;28;20105;-70
2022/12/07 05:22:34;;;;;;;25.70;10.10;;;-0.20;99.90;;;;;;5054197;28;20021;-71
2022/12/07 05:24:59;;;;;;;21.15;7.55;;;-0.20;99.90;;;;;;5053487;28;20021;-70
2022/12/07 05:27:25;;;;;;;27.65;7.30;;;-0.10;99.90;;;;;;5054203;28;20025;-70
2022/12/07 05:29:51;;;;;;;36.72;9.93;;;-0.10;99.90;;;;;;5054082;28;20388;-71
2022/12/07 05:32:17;;;;;;;25.48;6.75;;;-0.10;99.90;;;;;;5054196;28;20108;-71
2022/12/07 05:34:42;;;;;;;34.42;6.70;;;-0.10;99.90;;;;;;5053396;28;20449;-70
2022/12/07 05:37:08;;;;;;;20.20;6.47;;;0.00;99.90;;;;;;5053900;28;20032;-70
2022/12/07 05:39:33;;;;;;;24.40;5.55;;;0.00;99.90;;;;;;5036091;28;20024;-70
2022/12/07 05:42:14;;;;;;;30.90;6.28;;;0.00;99.90;;;;;;5053566;28;20033;-70
2022/12/07 05:44:45;;;;;;;28.38;5.15;;;0.00;99.90;;;;;;5053998;28;20024;-70
2022/12/07 05:47:13;;;;;;;18.77;4.30;;;0.00;99.90;;;;;;5053669;28;20021;-71
2022/12/07 05:49:38;;;;;;;16.75;4.63;;;0.00;99.90;;;;;;5053982;28;20535;-70
2022/12/07 05:52:05;;;;;;;22.98;5.30;;;0.00;99.90;;;;;;5053384;28;20136;-70
2022/12/07 05:54:31;;;;;;;48.80;4.43;;;0.10;99.90;;;;;;5053001;28;20028;-70
2022/12/07 05:56:57;;;;;;;22.17;4.00;;;0.00;99.90;;;;;;5053828;28;20021;-70
2022/12/07 05:59:23;;;;;;;18.13;3.33;;;0.00;99.90;;;;;;5054025;28;20021;-70
2022/12/07 06:01:50;;;;;;;32.20;5.15;;;0.00;99.90;;;;;;5054002;28;20028;-70
2022/12/07 06:04:16;;;;;;;39.00;7.18;;;0.10;99.90;;;;;;5053105;28;20032;-70
2022/12/07 06:06:42;;;;;;;38.80;11.27;;;0.10;99.90;;;;;;5052884;28;20031;-70
2022/12/07 06:09:07;;;;;;;36.80;8.30;;;0.20;99.90;;;;;;5053358;28;20032;-70
2022/12/07 06:14:17;;;;;;;21.52;3.88;;;0.40;99.90;;;;;;5053388;28;20568;-70
2022/12/07 06:16:42;;;;;;;18.70;4.30;;;0.70;99.90;;;;;;5053073;28;20053;-70
2022/12/07 06:19:08;;;;;;;20.17;4.90;;;0.70;99.90;;;;;;5052810;28;20534;-70
2022/12/07 06:21:33;;;;;;;21.80;3.00;;;0.80;99.90;;;;;;5048974;28;20026;-70
2022/12/07 06:23:59;;;;;;;17.77;2.00;;;0.90;99.90;;;;;;5033243;28;20021;-70
2022/12/07 06:26:24;;;;;;;14.95;1.55;;;1.00;99.90;;;;;;5034284;28;20037;-70
2022/12/07 06:28:50;;;;;;;5.82;2.53;;;1.10;99.90;;;;;;5049757;28;20033;-70
2022/12/07 06:31:16;;;;;;;22.40;2.58;;;1.20;99.90;;;;;;5053092;28;20032;-71
2022/12/07 06:33:42;;;;;;;25.25;3.22;;;1.40;99.90;;;;;;5052955;28;20029;-70
2022/12/07 06:36:08;;;;;;;11.68;2.80;;;1.60;99.90;;;;;;5053002;28;20024;-70
2022/12/07 06:38:34;;;;;;;8.02;3.65;;;1.70;99.90;;;;;;5053284;28;20017;-70
2022/12/07 06:41:00;;;;;;;12.15;2.83;;;1.70;99.90;;;;;;5040741;28;20021;-70
2022/12/07 06:43:25;;;;;;;18.33;2.08;;;1.70;99.90;;;;;;5033135;28;20112;-70
2022/12/07 06:45:51;;;;;;;17.67;2.15;;;1.70;99.90;;;;;;5042958;28;20024;-70
2022/12/07 06:48:16;;;;;;;10.68;2.78;;;1.70;99.90;;;;;;5053060;28;20037;-70
2022/12/07 06:50:44;;;;;;;19.73;3.03;;;1.80;99.90;;;;;;5052370;28;20025;-70
2022/12/07 06:53:10;;;;;;;25.42;6.20;;;1.80;99.90;;;;;;5052878;28;20061;-71
2022/12/07 06:55:35;;;;;;;29.73;11.93;;;1.80;99.90;;;;;;5052958;28;20507;-70
2022/12/07 06:58:02;;;;;;;12.38;2.83;;;1.80;99.90;;;;;;5052736;28;20104;-70
2022/12/07 07:00:28;;;;;;;14.02;2.40;;;1.80;99.90;;;;;;5052808;28;20041;-70
2022/12/07 07:02:53;;;;;;;26.38;2.63;;;1.80;99.90;;;;;;5052846;28;20064;-71
2022/12/07 07:05:21;;;;;;;12.75;2.05;;;1.80;99.90;;;;;;5052291;28;20491;-70
2022/12/07 07:07:47;;;;;;;33.03;8.52;;;1.80;99.90;;;;;;5052607;28;20526;-70
2022/12/07 07:10:13;;;;;;;43.42;12.63;;;1.90;99.90;;;;;;5034935;28;20025;-70
2022/12/07 07:12:38;;;;;;;23.73;3.42;;;1.90;99.90;;;;;;5052769;28;20033;-70
2022/12/07 07:15:04;;;;;;;41.50;9.52;;;1.90;99.90;;;;;;5053226;28;20029;-70
2022/12/07 07:17:30;;;;;;;20.70;4.25;;;2.00;99.90;;;;;;5053114;28;20031;-70
2022/12/07 07:19:55;;;;;;;53.95;12.82;;;1.90;99.90;;;;;;5056560;28;20108;-70
2022/12/07 07:22:21;;;;;;;47.58;12.10;;;1.90;99.90;;;;;;5056753;28;20471;-70
2022/12/07 07:24:46;;;;;;;14.75;3.28;;;1.90;99.90;;;;;;5056213;28;20029;-71
2022/12/07 07:27:12;;;;;;;77.25;15.25;;;1.90;99.90;;;;;;5056011;28;20499;-71
2022/12/07 07:29:37;;;;;;;18.75;4.88;;;1.90;99.90;;;;;;5056314;28;20391;-70
2022/12/07 07:32:03;;;;;;;36.22;5.85;;;1.90;99.90;;;;;;5056262;28;20029;-71
2022/12/07 07:34:29;;;;;;;15.32;2.83;;;1.90;99.90;;;;;;5056313;28;20037;-70
2022/12/07 07:36:54;;;;;;;33.70;6.38;;;1.90;99.90;;;;;;5038581;28;20017;-70
2022/12/07 07:39:20;;;;;;;37.92;5.18;;;1.90;99.90;;;;;;5055770;28;20079;-70
2022/12/07 07:41:46;;;;;;;25.42;4.13;;;1.90;99.90;;;;;;5055994;28;20025;-70
2022/12/07 07:44:12;;;;;;;32.58;4.18;;;1.90;99.90;;;;;;5037772;28;20028;-70
2022/12/07 07:46:37;;;;;;;25.83;3.83;;;1.90;99.90;;;;;;5053740;28;20037;-70
2022/12/07 07:49:03;;;;;;;23.80;4.88;;;1.90;99.90;;;;;;5051896;28;20038;-69
2022/12/07 07:51:28;;;;;;;14.88;3.28;;;1.90;99.90;;;;;;5035749;28;20025;-71
2022/12/07 07:53:54;;;;;;;15.70;4.00;;;1.80;99.90;;;;;;5036149;28;20029;-71
2022/12/07 07:56:19;;;;;;;21.50;6.43;;;1.90;99.90;;;;;;5054833;28;20036;-70
2022/12/07 07:58:45;;;;;;;22.70;2.88;;;1.90;99.90;;;;;;5056350;28;20021;-71
2022/12/07 08:01:11;;;;;;;26.33;4.45;;;1.90;99.90;;;;;;5056038;28;20036;-71
2022/12/07 08:03:36;;;;;;;24.40;3.28;;;1.90;99.90;;;;;;5055174;28;20068;-71
2022/12/07 08:06:03;;;;;;;18.00;4.93;;;1.90;99.90;;;;;;5055486;28;20495;-71
2022/12/07 08:08:29;;;;;;;29.42;5.07;;;1.90;99.90;;;;;;5061955;22;20041;-69
2022/12/07 08:10:54;;;;;;;22.60;3.03;;;1.90;99.90;;;;;;5035917;28;20032;-68
2022/12/07 08:13:20;;;;;;;24.38;3.05;;;1.90;99.90;;;;;;5034985;28;20124;-69
2022/12/07 08:15:47;;;;;;;17.20;4.20;;;1.90;99.90;;;;;;5036181;28;20104;-69
2022/12/07 08:18:14;;;;;;;21.85;4.07;;;1.80;99.90;;;;;;5035507;28;20020;-69
2022/12/07 08:20:40;;;;;;;25.92;3.65;;;1.80;99.90;;;;;;5028026;28;20068;-70
2022/12/07 08:23:07;;;;;;;17.95;3.03;;;1.80;99.90;;;;;;5035496;28;20445;-69
2022/12/07 08:25:33;;;;;;;8.68;2.60;;;1.70;99.90;;;;;;5031136;28;20034;-69
2022/12/07 08:28:00;;;;;;;15.77;4.90;;;1.70;99.90;;;;;;5032008;28;20512;-69
2022/12/07 08:30:26;;;;;;;277.30;91.70;;;1.70;99.90;;;;;;5035211;28;20029;-69
2022/12/07 08:32:52;;;;;;;182.90;81.25;;;1.70;99.90;;;;;;5034900;28;20104;-70
2022/12/07 08:35:18;;;;;;;67.45;31.85;;;1.60;99.90;;;;;;5035130;28;20109;-69
2022/12/07 08:37:43;;;;;;;40.47;21.85;;;1.60;99.90;;;;;;5035115;28;20392;-69
2022/12/07 08:40:11;;;;;;;60.85;21.77;;;1.50;99.90;;;;;;5035680;28;20029;-69
2022/12/07 08:42:39;;;;;;;16.75;5.25;;;1.50;99.90;;;;;;5034865;28;20100;-70
2022/12/07 08:45:13;;;;;;;60.78;16.65;;;1.40;99.90;;;;;;5035262;28;20052;-69
2022/12/07 08:47:41;;;;;;;;;;;1.50;99.90;;;;;;5001713;28;20036;-69
2022/12/07 08:50:09;;;;;;;86.88;20.02;;;1.40;99.90;;;;;;5015126;28;20004;-69
2022/12/07 08:52:36;;;;;;;49.22;14.77;;;1.50;99.90;;;;;;5015050;28;20025;-69
2022/12/07 08:55:03;;;;;;;59.30;17.17;;;1.50;99.90;;;;;;5015143;28;20091;-68
2022/12/07 08:57:29;;;;;;;74.82;23.15;;;1.50;99.90;;;;;;5014350;28;20028;-70
2022/12/07 08:59:55;;;;;;;58.33;19.27;;;1.40;99.90;;;;;;5015019;28;20516;-68
2022/12/07 09:02:21;;;;;;;53.88;15.25;;;1.50;99.90;;;;;;5023907;28;20029;-69
2022/12/07 09:04:46;;;;;;;60.22;14.50;;;1.50;99.90;;;;;;5034696;28;20085;-69
2022/12/07 09:07:12;;;;;;;40.50;12.95;;;1.40;99.90;;;;;;5034617;28;20037;-69
2022/12/07 09:09:37;;;;;;;36.25;10.77;;;1.40;99.90;;;;;;5034217;28;20104;-69
2022/12/07 09:12:03;;;;;;;53.03;16.17;;;1.50;99.90;;;;;;5034499;28;20056;-69
2022/12/07 09:14:29;;;;;;;46.55;10.52;;;1.50;99.90;;;;;;5035055;28;20097;-69
2022/12/07 09:16:56;;;;;;;59.05;16.63;;;1.60;99.90;;;;;;5034385;28;20241;-69
2022/12/07 09:19:22;;;;;;;45.28;12.32;;;1.70;99.90;;;;;;5034460;28;20029;-69
2022/12/07 09:21:48;;;;;;;36.95;9.68;;;1.80;99.90;;;;;;5033797;28;20021;-69
2022/12/07 09:24:13;;;;;;;23.08;7.95;;;1.80;99.90;;;;;;5034196;28;20024;-69
2022/12/07 09:26:40;;;;;;;16.33;5.45;;;1.80;99.90;;;;;;5034449;28;20026;-68
2022/12/07 09:29:06;;;;;;;44.65;10.55;;;1.90;99.90;;;;;;5033954;28;20499;-69
2022/12/07 09:31:31;;;;;;;33.08;6.80;;;1.90;99.90;;;;;;5033685;28;20030;-69
2022/12/07 09:33:59;;;;;;;17.85;3.40;;;1.90;99.90;;;;;;5034227;28;20479;-69
2022/12/07 09:36:25;;;;;;;31.38;6.38;;;1.90;99.90;;;;;;5034279;28;20580;-69
2022/12/07 09:38:51;;;;;;;21.80;4.35;;;1.90;99.90;;;;;;5033781;28;20032;-69
2022/12/07 09:41:16;;;;;;;6.68;1.60;;;2.00;99.90;;;;;;5033211;28;20021;-69
2022/12/07 09:43:42;;;;;;;7.72;1.92;;;2.00;99.90;;;;;;5034185;28;20026;-69
2022/12/07 09:46:15;;;;;;;11.27;1.38;;;2.00;99.90;;;;;;5033980;28;20112;-69
2022/12/07 09:48:42;;;;;;;5.35;1.45;;;2.00;99.90;;;;;;5034138;28;20021;-68
2022/12/07 09:51:17;;;;;;;8.98;2.08;;;2.00;99.90;;;;;;5033235;28;20072;-69
2022/12/07 09:53:44;;;;;;;9.63;1.67;;;2.10;99.90;;;;;;5034295;28;20461;-68
2022/12/07 09:56:14;;;;;;;4.50;1.00;;;2.10;99.90;;;;;;5033731;28;20104;-68
2022/12/07 09:58:41;;;;;;;10.68;1.38;;;2.10;99.90;;;;;;5033540;28;20018;-69
2022/12/07 10:01:15;;;;;;;12.52;1.52;;;2.10;99.90;;;;;;5033133;28;20021;-69
2022/12/07 10:03:49;;;;;;;15.02;1.20;;;2.20;99.90;;;;;;5033470;28;20029;-69
2022/12/07 10:06:15;;;;;;;10.07;1.30;;;2.20;99.90;;;;;;5033850;28;20044;-69
2022/12/07 10:08:43;;;;;;;9.13;1.88;;;2.20;99.90;;;;;;5034023;28;20392;-69
2022/12/07 10:11:10;;;;;;;7.15;1.20;;;2.30;99.90;;;;;;5033457;28;20026;-68
2022/12/07 10:13:53;;;;;;;5.78;1.20;;;2.40;99.90;;;;;;5032771;28;20053;-69
2022/12/07 10:16:25;;;;;;;7.75;1.80;;;2.40;99.90;;;;;;5033758;28;20480;-68
2022/12/07 10:18:52;;;;;;;13.98;1.77;;;2.40;99.90;;;;;;5033398;28;20028;-69
2022/12/07 10:21:20;;;;;;;7.32;2.22;;;2.40;99.90;;;;;;5033372;28;20128;-68
2022/12/07 10:24:14;;;;;;;13.02;1.63;;;2.40;99.90;;;;;;5033541;28;20029;-68
2022/12/07 10:26:46;;;;;;;10.27;1.63;;;2.40;99.90;;;;;;5041804;23;20052;-69
2022/12/07 10:29:16;;;;;;;5.95;1.88;;;2.40;99.90;;;;;;5052526;28;20065;-69
2022/12/07 10:31:43;;;;;;;7.35;2.22;;;2.40;99.90;;;;;;5053179;28;20067;-69
2022/12/07 10:34:36;;;;;;;5.38;1.40;;;2.40;99.90;;;;;;5053287;28;20032;-68
2022/12/07 10:37:25;;;;;;;7.32;1.73;;;2.60;99.90;;;;;;5050592;28;20112;-68
2022/12/07 10:39:53;;;;;;;15.68;2.65;;;2.70;99.90;;;;;;5034789;28;20426;-68
2022/12/07 10:42:22;;;;;;;8.35;2.28;;;2.70;99.90;;;;;;5053272;28;20037;-68
2022/12/07 10:44:50;;;;;;;14.55;2.72;;;2.80;99.90;;;;;;5052985;28;20036;-68
2022/12/07 10:47:58;;;;;;;12.55;2.53;;;2.80;99.90;;;;;;5053021;28;20053;-68
2022/12/07 10:50:55;;;;;;;13.02;4.65;;;2.90;99.90;;;;;;5042157;28;20037;-68
2022/12/07 10:53:38;;;;;;;21.17;6.28;;;2.90;99.90;;;;;;5057025;28;20094;-68
2022/12/07 10:56:13;;;;;;;25.27;5.82;;;3.00;99.90;;;;;;5056572;28;20021;-69
2022/12/07 10:59:01;;;;;;;19.38;5.85;;;3.00;99.90;;;;;;5056975;28;20107;-68
2022/12/07 11:01:51;;;;;;;76.50;19.65;;;3.00;99.90;;;;;;5057198;28;20075;-68
2022/12/07 11:04:43;;;;;;;50.20;18.17;;;3.00;99.90;;;;;;5056933;28;20055;-68
2022/12/07 11:07:33;;;;;;;44.42;17.90;;;3.00;99.90;;;;;;5056815;28;20427;-69
2022/12/07 11:10:05;;;;;;;81.88;29.83;;;3.00;99.90;;;;;;5057342;28;20471;-68
2022/12/07 11:12:57;;;;;;;99.57;37.35;;;3.00;99.90;;;;;;5057017;28;20383;-68
2022/12/07 11:15:51;;;;;;;40.90;15.32;;;3.00;99.90;;;;;;5056696;28;20387;-68
2022/12/07 11:18:27;;;;;;;24.30;9.80;;;2.90;99.90;;;;;;5038791;28;20025;-68
2022/12/07 11:21:09;;;;;;;29.40;8.80;;;2.90;99.90;;;;;;5056282;28;20484;-69
2022/12/07 11:24:03;;;;;;;30.67;7.70;;;2.90;99.90;;;;;;5056955;28;20383;-68
2022/12/07 11:26:41;;;;;;;65.88;15.35;;;2.80;99.90;;;;;;5056313;28;20028;-68
2022/12/07 11:29:14;;;;;;;43.92;11.35;;;2.80;99.90;;;;;;5056715;28;20032;-68
2022/12/07 11:32:29;;;;;;;45.97;12.18;;;2.80;99.90;;;;;;5056378;28;20032;-69
2022/12/07 11:35:01;;;;;;;37.28;8.52;;;2.80;99.90;;;;;;5051645;28;20076;-68
2022/12/07 11:37:32;;;;;;;35.90;9.63;;;2.90;99.90;;;;;;5057228;28;20380;-68
2022/12/07 11:40:24;;;;;;;31.77;8.75;;;2.90;99.90;;;;;;5056256;28;20017;-69
2022/12/07 11:42:55;;;;;;;19.58;5.15;;;2.90;99.90;;;;;;5055605;28;20036;-69
2022/12/07 11:45:26;;;;;;;28.83;7.70;;;2.90;99.90;;;;;;5056370;28;20025;-68
2022/12/07 11:48:18;;;;;;;20.17;5.18;;;2.90;99.90;;;;;;5056300;28;20075;-70
2022/12/07 11:50:57;;;;;;;20.75;5.32;;;2.90;99.90;;;;;;5056353;28;20429;-69
2022/12/07 11:53:26;;;;;;;28.27;7.45;;;2.90;99.90;;;;;;5055356;28;20054;-69
2022/12/07 11:56:08;;;;;;;51.30;12.27;;;2.90;99.90;;;;;;5055934;28;20103;-68
2022/12/07 11:58:33;;;;;;;63.03;15.07;;;2.90;99.90;;;;;;5072337;22;20064;-69
2022/12/07 12:01:27;;;;;;;21.90;4.55;;;2.90;99.90;;;;;;5036093;28;20022;-68
2022/12/07 12:03:56;;;;;;;;;;;2.90;99.90;;;;;;5035341;28;20029;-69
2022/12/07 12:06:21;;;;;;;47.03;10.32;;;2.80;99.90;;;;;;5036066;28;19905;-68
2022/12/07 12:08:58;;;;;;;21.92;5.43;;;2.80;99.90;;;;;;5035916;28;20036;-68
2022/12/07 12:12:01;;;;;;;73.28;14.65;;;2.70;99.90;;;;;;5035992;28;20029;-68
2022/12/07 12:14:54;;;;;;;41.75;8.55;;;2.70;99.90;;;;;;5035616;28;20033;-68
2022/12/07 12:17:50;;;;;;;39.30;8.90;;;2.50;99.90;;;;;;5042873;22;20125;-68
2022/12/07 12:20:30;;;;;;;14.13;3.55;;;2.40;99.90;;;;;;5035811;28;20033;-68
2022/12/07 12:23:20;;;;;;;6.03;1.50;;;2.40;99.90;;;;;;5035777;28;20026;-68
2022/12/07 12:25:58;;;;;;;13.20;3.97;;;2.40;99.90;;;;;;5034968;28;20396;-68
2022/12/07 12:28:42;;;;;;;6.15;2.53;;;2.40;99.90;;;;;;5035341;28;20049;-68
2022/12/07 12:31:39;;;;;;;4.20;1.67;;;2.40;99.90;;;;;;5035662;28;20112;-68
2022/12/07 12:34:40;;;;;;;10.88;2.47;;;2.40;99.90;;;;;;5034682;28;20048;-68
2022/12/07 12:37:34;;;;;;;9.02;2.13;;;2.40;99.90;;;;;;5035678;28;20421;-68
2022/12/07 12:40:14;;;;;;;;;;;2.30;99.90;;;;;;5036300;28;20068;-68
2022/12/07 12:43:26;;;;;;;8.68;1.92;;;2.30;99.90;;;;;;5034791;28;19905;-68
2022/12/07 12:46:29;;;;;;;3.83;1.60;;;2.20;99.90;;;;;;5034763;28;20057;-68
2022/12/07 12:49:20;;;;;;;5.55;2.55;;;2.20;99.90;;;;;;5034875;28;20056;-68
2022/12/07 12:51:50;;;;;;;3.60;1.00;;;2.10;99.90;;;;;;5034955;28;20030;-68
2022/12/07 12:54:22;;;;;;;11.40;1.60;;;2.00;99.90;;;;;;5034700;28;20392;-68
2022/12/07 12:57:08;;;;;;;3.55;1.55;;;1.90;99.90;;;;;;5035076;28;20492;-68
2022/12/07 12:59:58;;;;;;;7.18;1.65;;;1.80;99.90;;;;;;5034889;28;20033;-68
2022/12/07 13:02:29;;;;;;;6.38;1.98;;;1.80;99.90;;;;;;5024885;28;20116;-68
2022/12/07 13:05:12;;;;;;;16.85;2.00;;;1.80;99.90;;;;;;5034233;28;20033;-68